Current METAR

KOGD 251653Z 32008KT 10SM FEW120 15/03 A2973 RMK AO2 SLP026 T01500033 $

Simulator 2017-01-16T18:31:04+00:00

CR-12 (AATD) Simulator

Our FAA approved CR-12 simulator is the most effective simulator on the market. It’s sophisticated controls and “real-to-life” functionality provides perfect scenarios for instrument flight training and more.

When you train on our simulator you’ll save thousands of dollars! The FAA approval of the CR-12 means that students can log up to 50 hours of their simulator time towards flight training! So, instead of having to fly 250 hours in airplanes for you Commercial Pilot License, you can now train 50 hours in our simulator and only have to pay for 200 hours of flight training.

Stay instrument current and proficient! The CR-12 also gives us the ability to perform instrument currency training.